Bernalillo, NM (87004)

7:24 PM MDT on May 03, 2015 (GMT -0600)
Villas de las Huertas | | Change Station
CLOSE
Current Station
Personal Weather Station
Location: Placitas, NM
Elevation: 6290 ft
Nearby Weather Stations

Elev 6290 ft 35.30 °N, 106.41 °W | Updated 4 minutes ago

Partly Cloudy
Partly Cloudy
63.5 °F
Feels Like 63.5 °F
N
4.0
Wind Variable Wind from NW
Gusts 10.0 mph

Today
High -- | Low -- °F
--% Chance of Precip.
Yesterday
High -- | Low -- °F
Precip. -- in
6:12 AM 7:53 PM
Full, 100% visible
Pressure 29.78 in
Visibility 10.0 miles
Clouds Few 7000 ft
Few 13000 ft
Scattered Clouds 22000 ft
Dew Point 38 °F
Humidity 39%
Rainfall 0.00 in
Snow Depth Not available.
UV 0.0 out of 12
Pollen 7.20 out of 12
Air Quality Not available.
Flu Activity Local Activity
METAR KABQ 040052Z 36007KT 10SM FEW070 FEW130 SCT220 22/01 A2996 RMK AO2 SLP084 VIRGA NW T02220011

More Conditions Fewer Conditions

Pressure 29.78 in
Visibility 10.0 miles
Clouds Few 7000 ft
Few 13000 ft
Scattered Clouds 22000 ft
Dew Point 38 °F
Humidity 39%
Rainfall 0.00 in
Snow Depth Not available.
UV 0.0 out of 12
Pollen 7.20 out of 12
Air Quality Not available.
Flu Activity Local Activity
METAR KABQ 040052Z 36007KT 10SM FEW070 FEW130 SCT220 22/01 A2996 RMK AO2 SLP084 VIRGA NW T02220011

More Conditions Fewer Conditions

Nepal has a long way to go to dig out and rebuild from a devastating earthquake. We have teamed up with several charities and organizations to make contributing to the relief effort as easy as possible.
How you can help: Portlight Strategies | Red Cross
Nowcast | as of 6:11 PM MDT on May 3, 2015

Through 800 PM MDT...isolated thunderstorms will slowly track toward the northeast over the upper Gila region to include areas over the Whitewater Baldy burn scar to the east and northeast of Glenwood. Elsewhere...lightning was not being detected from isolated shower activity dotting the landscape of central and west central New Mexico. In fact...an overall downward trend can be expected in shower coverage as sunset nears. The main weather related concern from any of the passing showers or storms through early evening will be localized but strong gusty winds up to 45 or 50 mph.

×

10-Day Weather Forecast

Almanac

Astronomy

May. 03, 2015 Rise Set
Actual Time
Civil Twilight
Nautical Twilight
Astronomical Twilight
Moon
Length of Visible Light
Length of Day
Tomorrow will be .
, % of the Moon is Illuminated

Today's Extremes

State Highs State Lows

Community

WunderPhotos

Upload Photos

1,818,454 photos uploaded!

WunderBlogs® & News

Nearby

Air Quality

  Air Quality AQ Index Pollutant
Not available.

Snow Depth

Station Depth Elevation

Earthquake Activity

City Distance Mag. Time & Date
Minimum magnitude displayed is 2.5.

Coastal Water Temperatures

Place Temperature

Stations

Nearby Weather Stations

Station Location Temp. Windchill Dew Point Humidity Wind Precip. Elev Updated Type